sensor_id;sensor_type;location;lat;lon;timestamp;pressure;altitude;pressure_sealevel;temperature;humidity
46778;BME280;32536;47.128;8.746;2022-08-30T00:01:06;91958.16;;;21.37;53.92
46778;BME280;32536;47.128;8.746;2022-08-30T00:03:38;91958.16;;;21.37;53.92
46778;BME280;32536;47.128;8.746;2022-08-30T00:06:11;91962.09;;;21.36;54.00
46778;BME280;32536;47.128;8.746;2022-08-30T00:08:41;91965.44;;;21.31;54.25
46778;BME280;32536;47.128;8.746;2022-08-30T00:11:13;91965.63;;;21.27;54.27
46778;BME280;32536;47.128;8.746;2022-08-30T00:13:45;91961.97;;;21.31;54.31
46778;BME280;32536;47.128;8.746;2022-08-30T00:16:12;91959.06;;;21.34;54.23
46778;BME280;32536;47.128;8.746;2022-08-30T00:18:39;91962.84;;;21.37;54.29
46778;BME280;32536;47.128;8.746;2022-08-30T00:21:07;91952.88;;;21.34;54.23
46778;BME280;32536;47.128;8.746;2022-08-30T00:23:34;91960.47;;;21.30;54.71
46778;BME280;32536;47.128;8.746;2022-08-30T00:26:01;91954.72;;;21.27;54.63
46778;BME280;32536;47.128;8.746;2022-08-30T00:28:28;91955.19;;;21.26;54.84
46778;BME280;32536;47.128;8.746;2022-08-30T00:30:56;91954.44;;;21.25;54.85
46778;BME280;32536;47.128;8.746;2022-08-30T00:33:23;91954.91;;;21.24;54.89
46778;BME280;32536;47.128;8.746;2022-08-30T00:35:50;91949.19;;;21.22;55.00
46778;BME280;32536;47.128;8.746;2022-08-30T00:38:16;91948.69;;;21.23;54.82
46778;BME280;32536;47.128;8.746;2022-08-30T00:41:14;91954.72;;;21.27;54.63
46778;BME280;32536;47.128;8.746;2022-08-30T00:43:41;91954.28;;;21.29;54.85
46778;BME280;32536;47.128;8.746;2022-08-30T00:46:08;91953.06;;;21.30;54.79
46778;BME280;32536;47.128;8.746;2022-08-30T00:48:43;91950.59;;;21.32;54.82
46778;BME280;32536;47.128;8.746;2022-08-30T00:51:13;91950.16;;;21.34;54.64
46778;BME280;32536;47.128;8.746;2022-08-30T00:53:44;91938.97;;;21.32;54.72
46778;BME280;32536;47.128;8.746;2022-08-30T00:56:14;91947.59;;;21.30;54.50
46778;BME280;32536;47.128;8.746;2022-08-30T00:58:45;91940.47;;;21.33;54.42
46778;BME280;32536;47.128;8.746;2022-08-30T01:01:13;91938.78;;;21.35;54.40
46778;BME280;32536;47.128;8.746;2022-08-30T01:03:41;91943.47;;;21.35;54.30
46778;BME280;32536;47.128;8.746;2022-08-30T01:06:08;91948.91;;;21.35;54.24
46778;BME280;32536;47.128;8.746;2022-08-30T01:08:35;91939.69;;;21.32;54.20
46778;BME280;32536;47.128;8.746;2022-08-30T01:11:03;91944.41;;;21.32;54.40
46778;BME280;32536;47.128;8.746;2022-08-30T01:13:32;91939.13;;;21.28;54.30
46778;BME280;32536;47.128;8.746;2022-08-30T01:16:00;91953.97;;;21.27;54.37
46778;BME280;32536;47.128;8.746;2022-08-30T01:18:28;91945.50;;;21.25;54.65
46778;BME280;32536;47.128;8.746;2022-08-30T01:21:04;91952.63;;;21.22;54.65
46778;BME280;32536;47.128;8.746;2022-08-30T01:23:42;91948.69;;;21.23;54.30
46778;BME280;32536;47.128;8.746;2022-08-30T01:26:10;91949.47;;;21.24;54.45
46778;BME280;32536;47.128;8.746;2022-08-30T01:28:39;91944.59;;;21.28;54.29
46778;BME280;32536;47.128;8.746;2022-08-30T01:31:06;91944.88;;;21.30;53.96
46778;BME280;32536;47.128;8.746;2022-08-30T01:33:35;91951.25;;;21.27;53.87
46778;BME280;32536;47.128;8.746;2022-08-30T01:36:06;91957.66;;;21.24;54.25
46778;BME280;32536;47.128;8.746;2022-08-30T01:38:50;91959.94;;;21.16;54.05
46778;BME280;32536;47.128;8.746;2022-08-30T01:43:48;91953.47;;;21.14;53.81
46778;BME280;32536;47.128;8.746;2022-08-30T01:46:18;91951.03;;;21.16;53.66
46778;BME280;32536;47.128;8.746;2022-08-30T01:48:49;91952.53;;;21.17;53.80
46778;BME280;32536;47.128;8.746;2022-08-30T01:51:17;91943.94;;;21.09;53.92
46778;BME280;32536;47.128;8.746;2022-08-30T01:53:44;91952.47;;;21.02;54.03
46778;BME280;32536;47.128;8.746;2022-08-30T01:56:12;91946.63;;;20.94;54.36
46778;BME280;32536;47.128;8.746;2022-08-30T01:58:40;91948.78;;;20.90;54.44
46778;BME280;32536;47.128;8.746;2022-08-30T02:01:10;91949.22;;;20.88;54.37
46778;BME280;32536;47.128;8.746;2022-08-30T02:03:41;91955.13;;;20.87;54.14
46778;BME280;32536;47.128;8.746;2022-08-30T02:06:13;91951.19;;;20.88;54.01
46778;BME280;32536;47.128;8.746;2022-08-30T02:08:42;91950.44;;;20.87;54.19
46778;BME280;32536;47.128;8.746;2022-08-30T02:11:10;91948.63;;;20.84;54.48
46778;BME280;32536;47.128;8.746;2022-08-30T02:13:40;91954.25;;;20.81;54.41
46778;BME280;32536;47.128;8.746;2022-08-30T02:16:10;91950.03;;;20.79;53.87
46778;BME280;32536;47.128;8.746;2022-08-30T02:18:41;91945.34;;;20.80;53.83
46778;BME280;32536;47.128;8.746;2022-08-30T02:21:08;91944.09;;;20.81;53.83
46778;BME280;32536;47.128;8.746;2022-08-30T02:23:35;91940.16;;;20.82;53.74
46778;BME280;32536;47.128;8.746;2022-08-30T02:26:03;91940.66;;;20.81;53.64
46778;BME280;32536;47.128;8.746;2022-08-30T02:28:30;91942.03;;;20.76;54.03
46778;BME280;32536;47.128;8.746;2022-08-30T02:30:57;91947.34;;;20.70;54.36
46778;BME280;32536;47.128;8.746;2022-08-30T02:33:24;91945.53;;;20.67;54.35
46778;BME280;32536;47.128;8.746;2022-08-30T02:35:51;91942.81;;;20.67;54.56
46778;BME280;32536;47.128;8.746;2022-08-30T02:38:18;91941.59;;;20.68;54.51
46778;BME280;32536;47.128;8.746;2022-08-30T02:40:44;91941.13;;;20.70;54.51
46778;BME280;32536;47.128;8.746;2022-08-30T02:43:11;91936.16;;;20.68;54.74
46778;BME280;32536;47.128;8.746;2022-08-30T02:45:38;91939.34;;;20.67;54.69
46778;BME280;32536;47.128;8.746;2022-08-30T02:48:05;91933.75;;;20.61;54.99
46778;BME280;32536;47.128;8.746;2022-08-30T02:50:32;91930.16;;;20.55;55.09
46778;BME280;32536;47.128;8.746;2022-08-30T02:52:59;91922.63;;;20.50;55.34
46778;BME280;32536;47.128;8.746;2022-08-30T02:55:25;91927.59;;;20.51;55.13
46778;BME280;32536;47.128;8.746;2022-08-30T02:57:52;91928.47;;;20.57;55.07
46778;BME280;32536;47.128;8.746;2022-08-30T03:00:19;91924.84;;;20.60;55.08
46778;BME280;32536;47.128;8.746;2022-08-30T03:02:46;91923.44;;;20.65;55.07
46778;BME280;32536;47.128;8.746;2022-08-30T03:05:15;91916.50;;;20.64;55.15
46778;BME280;32536;47.128;8.746;2022-08-30T03:07:42;91917.09;;;20.68;54.79
46778;BME280;32536;47.128;8.746;2022-08-30T03:10:14;91913.75;;;20.73;54.80
46778;BME280;32536;47.128;8.746;2022-08-30T03:12:41;91910.88;;;20.77;54.42
46778;BME280;32536;47.128;8.746;2022-08-30T03:15:10;91914.31;;;20.77;53.92
46778;BME280;32536;47.128;8.746;2022-08-30T03:17:38;91906.63;;;20.76;53.99
46778;BME280;32536;47.128;8.746;2022-08-30T03:20:07;91908.78;;;20.72;54.01
46778;BME280;32536;47.128;8.746;2022-08-30T03:22:35;91899.72;;;20.66;53.50
46778;BME280;32536;47.128;8.746;2022-08-30T03:25:03;91896.88;;;20.60;53.60
46778;BME280;32536;47.128;8.746;2022-08-30T03:27:30;91893.09;;;20.57;53.72
46778;BME280;32536;47.128;8.746;2022-08-30T03:29:57;91892.97;;;20.52;53.46
46778;BME280;32536;47.128;8.746;2022-08-30T03:32:24;91894.81;;;20.45;53.71
46778;BME280;32536;47.128;8.746;2022-08-30T03:34:50;91888.50;;;20.39;53.64
46778;BME280;32536;47.128;8.746;2022-08-30T03:37:17;91887.31;;;20.31;53.72
46778;BME280;32536;47.128;8.746;2022-08-30T03:39:45;91885.22;;;20.26;53.69
46778;BME280;32536;47.128;8.746;2022-08-30T03:42:12;91888.25;;;20.28;53.79
46778;BME280;32536;47.128;8.746;2022-08-30T03:44:39;91897.94;;;20.29;53.83
46778;BME280;32536;47.128;8.746;2022-08-30T03:47:06;91890.19;;;20.27;54.10
46778;BME280;32536;47.128;8.746;2022-08-30T03:49:33;91889.63;;;20.23;54.39
46778;BME280;32536;47.128;8.746;2022-08-30T03:52:00;91891.59;;;20.23;54.21
46778;BME280;32536;47.128;8.746;2022-08-30T03:54:28;91889.47;;;20.27;54.49
46778;BME280;32536;47.128;8.746;2022-08-30T03:56:55;91895.66;;;20.27;54.55
46778;BME280;32536;47.128;8.746;2022-08-30T03:59:22;91895.38;;;20.25;54.68
46778;BME280;32536;47.128;8.746;2022-08-30T04:01:49;91890.84;;;20.22;54.98
46778;BME280;32536;47.128;8.746;2022-08-30T04:04:16;91895.22;;;20.20;55.09
46778;BME280;32536;47.128;8.746;2022-08-30T04:06:43;91879.84;;;20.17;55.25
46778;BME280;32536;47.128;8.746;2022-08-30T04:09:10;91882.25;;;20.14;55.51
46778;BME280;32536;47.128;8.746;2022-08-30T04:11:37;91887.13;;;20.10;55.38
46778;BME280;32536;47.128;8.746;2022-08-30T04:14:04;91883.63;;;20.10;55.59
46778;BME280;32536;47.128;8.746;2022-08-30T04:16:31;91892.84;;;20.12;55.59
46778;BME280;32536;47.128;8.746;2022-08-30T04:18:57;91887.41;;;20.12;55.33
46778;BME280;32536;47.128;8.746;2022-08-30T04:21:24;91893.59;;;20.13;55.61
46778;BME280;32536;47.128;8.746;2022-08-30T04:23:51;91889.22;;;20.15;55.49
46778;BME280;32536;47.128;8.746;2022-08-30T04:26:18;91897.78;;;20.23;55.35
46778;BME280;32536;47.128;8.746;2022-08-30T04:28:45;91892.19;;;20.27;55.07
46778;BME280;32536;47.128;8.746;2022-08-30T04:31:15;91898.19;;;20.31;54.73
46778;BME280;32536;47.128;8.746;2022-08-30T04:33:43;91895.47;;;20.31;54.74
46778;BME280;32536;47.128;8.746;2022-08-30T04:36:10;91887.78;;;20.29;54.94
46778;BME280;32536;47.128;8.746;2022-08-30T04:38:40;91904.56;;;20.28;55.11
46778;BME280;32536;47.128;8.746;2022-08-30T04:41:30;91897.75;;;20.33;54.64
46778;BME280;32536;47.128;8.746;2022-08-30T04:43:57;91906.81;;;20.39;54.55
46778;BME280;32536;47.128;8.746;2022-08-30T04:46:28;91904.66;;;20.43;54.28
46778;BME280;32536;47.128;8.746;2022-08-30T04:48:55;91900.25;;;20.45;54.40
46778;BME280;32536;47.128;8.746;2022-08-30T04:51:22;91902.34;;;20.51;53.94
46778;BME280;32536;47.128;8.746;2022-08-30T04:53:49;91903.59;;;20.50;54.18
46778;BME280;32536;47.128;8.746;2022-08-30T04:56:19;91903.28;;;20.47;54.21
46778;BME280;32536;47.128;8.746;2022-08-30T04:58:51;91906.31;;;20.50;54.20
46778;BME280;32536;47.128;8.746;2022-08-30T05:01:25;91908.38;;;20.55;53.96
46778;BME280;32536;47.128;8.746;2022-08-30T05:03:55;91909.28;;;20.52;54.12
46778;BME280;32536;47.128;8.746;2022-08-30T05:06:23;91921.59;;;20.47;54.31
46778;BME280;32536;47.128;8.746;2022-08-30T05:08:52;91914.91;;;20.48;54.44
46778;BME280;32536;47.128;8.746;2022-08-30T05:11:20;91926.25;;;20.46;54.66
46778;BME280;32536;47.128;8.746;2022-08-30T05:13:47;91926.41;;;20.43;54.71
46778;BME280;32536;47.128;8.746;2022-08-30T05:16:14;91932.03;;;20.39;55.04
46778;BME280;32536;47.128;8.746;2022-08-30T05:18:44;91930.97;;;20.37;55.27
46778;BME280;32536;47.128;8.746;2022-08-30T05:21:15;91926.28;;;20.37;55.16
46778;BME280;32536;47.128;8.746;2022-08-30T05:23:45;91940.78;;;20.43;54.88
46778;BME280;32536;47.128;8.746;2022-08-30T05:26:21;91939.41;;;20.48;54.70
46778;BME280;32536;47.128;8.746;2022-08-30T05:28:50;91938.03;;;20.53;54.83
46778;BME280;32536;47.128;8.746;2022-08-30T05:33:50;91927.19;;;20.43;55.10
46778;BME280;32536;47.128;8.746;2022-08-30T05:36:20;91935.78;;;20.42;55.15
46778;BME280;32536;47.128;8.746;2022-08-30T05:38:49;91936.41;;;20.46;55.15
46778;BME280;32536;47.128;8.746;2022-08-30T05:41:35;91934.25;;;20.50;54.72
46778;BME280;32536;47.128;8.746;2022-08-30T05:44:04;91942.38;;;20.59;54.98
46778;BME280;32536;47.128;8.746;2022-08-30T05:46:32;91937.34;;;20.67;55.02
46778;BME280;32536;47.128;8.746;2022-08-30T05:49:02;91943.69;;;20.73;54.82
46778;BME280;32536;47.128;8.746;2022-08-30T05:51:32;91941.56;;;20.77;54.51
46778;BME280;32536;47.128;8.746;2022-08-30T05:54:00;91945.63;;;20.82;54.49
46778;BME280;32536;47.128;8.746;2022-08-30T05:56:31;91940.94;;;20.83;54.42
46778;BME280;32536;47.128;8.746;2022-08-30T05:59:03;91940.94;;;20.83;54.63
46778;BME280;32536;47.128;8.746;2022-08-30T06:01:35;91950.31;;;20.82;54.89
46778;BME280;32536;47.128;8.746;2022-08-30T06:04:06;91942.91;;;20.82;55.09
46778;BME280;32536;47.128;8.746;2022-08-30T06:06:36;91948.34;;;20.82;55.31
46778;BME280;32536;47.128;8.746;2022-08-30T06:09:05;91947.44;;;20.85;55.22
46778;BME280;32536;47.128;8.746;2022-08-30T06:11:33;91956.78;;;20.93;55.29
46778;BME280;32536;47.128;8.746;2022-08-30T06:14:01;91950.22;;;21.00;55.38
46778;BME280;32536;47.128;8.746;2022-08-30T06:16:28;91941.22;;;21.09;55.34
46778;BME280;32536;47.128;8.746;2022-08-30T06:18:57;91951.31;;;21.18;55.19
46778;BME280;32536;47.128;8.746;2022-08-30T06:21:27;91952.19;;;21.24;54.96
46778;BME280;32536;47.128;8.746;2022-08-30T06:23:56;91960.00;;;21.31;54.94
46778;BME280;32536;47.128;8.746;2022-08-30T06:26:24;91941.81;;;21.37;54.78
46778;BME280;32536;47.128;8.746;2022-08-30T06:28:53;91944.63;;;21.43;54.61
46778;BME280;32536;47.128;8.746;2022-08-30T06:31:21;91948.69;;;21.48;54.88
46778;BME280;32536;47.128;8.746;2022-08-30T06:33:50;91939.59;;;21.51;54.78
46778;BME280;32536;47.128;8.746;2022-08-30T06:36:21;91941.06;;;21.52;54.67
46778;BME280;32536;47.128;8.746;2022-08-30T06:38:51;91944.38;;;21.56;54.56
46778;BME280;32536;47.128;8.746;2022-08-30T06:41:39;91938.94;;;21.56;54.11
46778;BME280;32536;47.128;8.746;2022-08-30T06:44:08;91947.69;;;21.60;54.34
46778;BME280;32536;47.128;8.746;2022-08-30T06:46:36;91939.53;;;21.60;54.33
46778;BME280;32536;47.128;8.746;2022-08-30T06:49:04;91939.03;;;21.62;54.35
46778;BME280;32536;47.128;8.746;2022-08-30T06:51:35;91936.63;;;21.64;54.44
46778;BME280;32536;47.128;8.746;2022-08-30T06:54:04;91937.66;;;21.66;54.33
46778;BME280;32536;47.128;8.746;2022-08-30T06:56:31;91932.66;;;21.65;54.46
46778;BME280;32536;47.128;8.746;2022-08-30T06:58:58;91930.69;;;21.65;54.49
46778;BME280;32536;47.128;8.746;2022-08-30T07:01:26;91932.66;;;21.65;54.38
46778;BME280;32536;47.128;8.746;2022-08-30T07:03:55;91932.66;;;21.65;54.43
46778;BME280;32536;47.128;8.746;2022-08-30T07:06:24;91928.44;;;21.64;54.68
46778;BME280;32536;47.128;8.746;2022-08-30T07:08:54;91926.75;;;21.66;54.65
46778;BME280;32536;47.128;8.746;2022-08-30T07:11:32;91924.78;;;21.67;54.63
46778;BME280;32536;47.128;8.746;2022-08-30T07:14:01;91922.31;;;21.69;54.69
46778;BME280;32536;47.128;8.746;2022-08-30T07:16:30;91920.38;;;21.69;54.96
46778;BME280;32536;47.128;8.746;2022-08-30T07:18:57;91915.94;;;21.72;54.83
46778;BME280;32536;47.128;8.746;2022-08-30T07:21:40;91911.25;;;21.72;54.83
46778;BME280;32536;47.128;8.746;2022-08-30T07:24:11;91910.13;;;21.79;54.65
46778;BME280;32536;47.128;8.746;2022-08-30T07:26:42;91909.19;;;21.82;54.80
46778;BME280;32536;47.128;8.746;2022-08-30T07:29:12;91913.22;;;21.87;55.39
46778;BME280;32536;47.128;8.746;2022-08-30T07:31:38;91904.97;;;21.96;55.09
46778;BME280;32536;47.128;8.746;2022-08-30T07:34:07;91910.78;;;22.04;54.95
46778;BME280;32536;47.128;8.746;2022-08-30T07:36:36;91907.50;;;22.15;55.24
46778;BME280;32536;47.128;8.746;2022-08-30T07:39:04;91905.41;;;22.25;55.07
46778;BME280;32536;47.128;8.746;2022-08-30T07:41:40;91901.81;;;22.33;54.52
46778;BME280;32536;47.128;8.746;2022-08-30T07:44:09;91905.97;;;22.44;54.93
46778;BME280;32536;47.128;8.746;2022-08-30T07:46:36;91901.41;;;22.55;55.05
46778;BME280;32536;47.128;8.746;2022-08-30T07:49:04;91899.31;;;22.65;55.14
46778;BME280;32536;47.128;8.746;2022-08-30T07:51:32;91904.66;;;22.75;54.80
46778;BME280;32536;47.128;8.746;2022-08-30T07:53:59;91899.28;;;22.80;54.80
46778;BME280;32536;47.128;8.746;2022-08-30T07:56:26;91899.56;;;22.82;54.55
46778;BME280;32536;47.128;8.746;2022-08-30T07:58:53;91894.91;;;22.89;54.83
46778;BME280;32536;47.128;8.746;2022-08-30T08:01:20;91901.75;;;22.99;54.87
46778;BME280;32536;47.128;8.746;2022-08-30T08:03:48;91895.94;;;23.12;54.84
46778;BME280;32536;47.128;8.746;2022-08-30T08:06:17;91899.13;;;23.25;54.81
46778;BME280;32536;47.128;8.746;2022-08-30T08:08:45;91901.03;;;23.40;54.81
46778;BME280;32536;47.128;8.746;2022-08-30T08:11:21;91892.97;;;23.51;54.62
46778;BME280;32536;47.128;8.746;2022-08-30T08:13:50;91904.53;;;23.66;53.78
46778;BME280;32536;47.128;8.746;2022-08-30T08:16:17;91907.66;;;23.80;54.84
46778;BME280;32536;47.128;8.746;2022-08-30T08:18:45;91899.13;;;23.93;54.69
46778;BME280;32536;47.128;8.746;2022-08-30T08:21:12;91896.75;;;24.06;55.35
46778;BME280;32536;47.128;8.746;2022-08-30T08:23:39;91896.44;;;24.30;55.77
46778;BME280;32536;47.128;8.746;2022-08-30T08:26:05;91906.41;;;24.66;55.49
46778;BME280;32536;47.128;8.746;2022-08-30T08:28:32;91904.63;;;25.00;54.89
46778;BME280;32536;47.128;8.746;2022-08-30T08:30:59;91904.25;;;25.30;54.08
46778;BME280;32536;47.128;8.746;2022-08-30T08:33:26;91900.13;;;25.52;53.85
46778;BME280;32536;47.128;8.746;2022-08-30T08:35:52;91898.16;;;25.64;53.64
46778;BME280;32536;47.128;8.746;2022-08-30T08:38:19;91891.44;;;25.65;53.18
46778;BME280;32536;47.128;8.746;2022-08-30T08:41:06;91896.66;;;25.63;52.47
46778;BME280;32536;47.128;8.746;2022-08-30T08:47:12;91895.41;;;25.69;53.24
46778;BME280;32536;47.128;8.746;2022-08-30T08:50:17;91890.44;;;25.62;52.89
46778;BME280;32536;47.128;8.746;2022-08-30T08:55:42;91888.88;;;25.44;53.20
46778;BME280;32536;47.128;8.746;2022-08-30T09:01:17;91896.59;;;25.40;53.56
46778;BME280;32536;47.128;8.746;2022-08-30T09:03:46;91895.63;;;25.43;53.68
46778;BME280;32536;47.128;8.746;2022-08-30T09:09:03;91902.84;;;25.46;53.71
46778;BME280;32536;47.128;8.746;2022-08-30T09:11:36;91907.09;;;25.47;53.47
46778;BME280;32536;47.128;8.746;2022-08-30T09:14:09;91907.34;;;25.49;53.12
46778;BME280;32536;47.128;8.746;2022-08-30T09:16:56;91909.59;;;25.51;52.94
46778;BME280;32536;47.128;8.746;2022-08-30T09:19:37;91902.38;;;25.53;53.02
46778;BME280;32536;47.128;8.746;2022-08-30T09:25:09;91897.34;;;25.40;53.11
46778;BME280;32536;47.128;8.746;2022-08-30T09:28:10;91892.88;;;25.43;53.34
46778;BME280;32536;47.128;8.746;2022-08-30T09:30:38;91898.31;;;25.37;53.33
46778;BME280;32536;47.128;8.746;2022-08-30T09:33:17;91901.28;;;25.34;53.21
46778;BME280;32536;47.128;8.746;2022-08-30T09:35:50;91894.28;;;25.33;53.83
46778;BME280;32536;47.128;8.746;2022-08-30T09:40:54;91900.25;;;25.25;53.22
46778;BME280;32536;47.128;8.746;2022-08-30T09:43:31;91902.94;;;25.14;52.93
46778;BME280;32536;47.128;8.746;2022-08-30T09:57:23;91912.31;;;24.96;53.59
46778;BME280;32536;47.128;8.746;2022-08-30T10:13:57;91918.66;;;25.19;53.15
46778;BME280;32536;47.128;8.746;2022-08-30T10:22:38;91906.94;;;25.19;53.12
46778;BME280;32536;47.128;8.746;2022-08-30T10:25:20;91908.97;;;25.18;53.30
46778;BME280;32536;47.128;8.746;2022-08-30T10:28:08;91904.47;;;25.21;53.04
46778;BME280;32536;47.128;8.746;2022-08-30T10:30:49;91900.50;;;25.22;52.49
46778;BME280;32536;47.128;8.746;2022-08-30T10:33:29;91901.25;;;25.22;52.93
46778;BME280;32536;47.128;8.746;2022-08-30T10:36:10;91901.50;;;25.24;52.58
46778;BME280;32536;47.128;8.746;2022-08-30T10:38:40;91897.53;;;25.25;52.51
46778;BME280;32536;47.128;8.746;2022-08-30T10:44:49;91895.78;;;25.28;52.04
46778;BME280;32536;47.128;8.746;2022-08-30T10:47:40;91895.25;;;25.24;52.16
46778;BME280;32536;47.128;8.746;2022-08-30T10:50:48;91902.75;;;25.23;52.34
46778;BME280;32536;47.128;8.746;2022-08-30T10:53:29;91897.22;;;25.18;51.69
46778;BME280;32536;47.128;8.746;2022-08-30T10:56:25;91901.97;;;25.17;51.91
46778;BME280;32536;47.128;8.746;2022-08-30T10:58:55;91898.22;;;25.15;51.82
46778;BME280;32536;47.128;8.746;2022-08-30T11:04:38;91908.72;;;25.28;51.13
46778;BME280;32536;47.128;8.746;2022-08-30T11:07:46;91903.78;;;25.32;51.28
46778;BME280;32536;47.128;8.746;2022-08-30T11:13:19;91902.56;;;25.38;51.50
46778;BME280;32536;47.128;8.746;2022-08-30T11:18:40;91903.78;;;25.32;51.26
46778;BME280;32536;47.128;8.746;2022-08-30T11:21:21;91895.06;;;25.33;50.78
46778;BME280;32536;47.128;8.746;2022-08-30T11:24:08;91899.34;;;25.46;51.10
46778;BME280;32536;47.128;8.746;2022-08-30T11:37:43;91883.22;;;25.76;50.37
46778;BME280;32536;47.128;8.746;2022-08-30T11:42:53;91885.75;;;25.91;51.29
46778;BME280;32536;47.128;8.746;2022-08-30T11:58:48;91865.06;;;26.07;50.53
46778;BME280;32536;47.128;8.746;2022-08-30T12:04:06;91860.84;;;26.12;49.46
46778;BME280;32536;47.128;8.746;2022-08-30T12:07:00;91856.34;;;26.09;48.65
46778;BME280;32536;47.128;8.746;2022-08-30T12:12:09;91848.59;;;26.07;48.62
46778;BME280;32536;47.128;8.746;2022-08-30T12:14:57;91852.84;;;26.14;49.30
46778;BME280;32536;47.128;8.746;2022-08-30T12:20:41;91851.09;;;26.11;48.43
46778;BME280;32536;47.128;8.746;2022-08-30T12:23:36;91840.63;;;26.15;48.87
46778;BME280;32536;47.128;8.746;2022-08-30T12:26:16;91836.88;;;26.18;48.42
46778;BME280;32536;47.128;8.746;2022-08-30T12:28:51;91842.13;;;26.27;49.11
46778;BME280;32536;47.128;8.746;2022-08-30T12:31:41;91833.38;;;26.34;47.48
46778;BME280;32536;47.128;8.746;2022-08-30T12:34:24;91828.13;;;26.48;47.72
46778;BME280;32536;47.128;8.746;2022-08-30T12:37:08;91835.09;;;26.60;47.69
46778;BME280;32536;47.128;8.746;2022-08-30T12:39:45;91821.56;;;26.74;48.45
46778;BME280;32536;47.128;8.746;2022-08-30T12:42:22;91821.06;;;26.81;46.99
46778;BME280;32536;47.128;8.746;2022-08-30T12:44:53;91827.03;;;26.91;48.67
46778;BME280;32536;47.128;8.746;2022-08-30T12:47:50;91832.00;;;26.98;47.37
46778;BME280;32536;47.128;8.746;2022-08-30T12:53:26;91823.97;;;27.06;46.26
46778;BME280;32536;47.128;8.746;2022-08-30T12:56:12;91817.97;;;27.07;46.73
46778;BME280;32536;47.128;8.746;2022-08-30T12:58:49;91815.72;;;27.11;46.96
46778;BME280;32536;47.128;8.746;2022-08-30T13:04:24;91825.13;;;27.27;46.39
46778;BME280;32536;47.128;8.746;2022-08-30T13:07:00;91815.09;;;27.36;44.95
46778;BME280;32536;47.128;8.746;2022-08-30T13:09:39;91815.31;;;27.43;47.30
46778;BME280;32536;47.128;8.746;2022-08-30T13:12:21;91809.31;;;27.45;47.86
46778;BME280;32536;47.128;8.746;2022-08-30T13:14:50;91809.56;;;27.47;47.92
46778;BME280;32536;47.128;8.746;2022-08-30T13:23:09;91814.03;;;27.50;46.54
46778;BME280;32536;47.128;8.746;2022-08-30T13:25:38;91807.78;;;27.50;47.70
46778;BME280;32536;47.128;8.746;2022-08-30T13:28:06;91804.06;;;27.47;47.51
46778;BME280;32536;47.128;8.746;2022-08-30T13:30:33;91794.81;;;27.44;47.57
46778;BME280;32536;47.128;8.746;2022-08-30T13:33:00;91799.28;;;27.47;47.28
46778;BME280;32536;47.128;8.746;2022-08-30T13:35:28;91789.03;;;27.48;47.27
46778;BME280;32536;47.128;8.746;2022-08-30T13:37:56;91791.09;;;27.42;47.31
46778;BME280;32536;47.128;8.746;2022-08-30T13:40:25;91798.81;;;27.38;47.22
46778;BME280;32536;47.128;8.746;2022-08-30T13:42:52;91796.06;;;27.38;47.06
46778;BME280;32536;47.128;8.746;2022-08-30T13:45:19;91790.06;;;27.39;47.38
46778;BME280;32536;47.128;8.746;2022-08-30T13:47:47;91786.31;;;27.37;47.26
46778;BME280;32536;47.128;8.746;2022-08-30T13:50:14;91784.34;;;27.31;47.28
46778;BME280;32536;47.128;8.746;2022-08-30T13:52:41;91777.59;;;27.32;47.35
46778;BME280;32536;47.128;8.746;2022-08-30T13:55:08;91766.31;;;27.36;47.19
46778;BME280;32536;47.128;8.746;2022-08-30T13:57:36;91765.81;;;27.38;46.88
46778;BME280;32536;47.128;8.746;2022-08-30T14:00:08;91761.28;;;27.40;46.28
46778;BME280;32536;47.128;8.746;2022-08-30T14:02:37;91760.78;;;27.47;46.82
46778;BME280;32536;47.128;8.746;2022-08-30T14:05:07;91751.47;;;27.56;46.98
46778;BME280;32536;47.128;8.746;2022-08-30T14:07:34;91755.69;;;27.63;46.67
46778;BME280;32536;47.128;8.746;2022-08-30T14:10:01;91762.19;;;27.60;46.67
46778;BME280;32536;47.128;8.746;2022-08-30T14:12:28;91762.19;;;27.60;46.60
46778;BME280;32536;47.128;8.746;2022-08-30T14:14:55;91756.69;;;27.60;46.55
46778;BME280;32536;47.128;8.746;2022-08-30T14:17:22;91758.25;;;27.55;46.56
46778;BME280;32536;47.128;8.746;2022-08-30T14:19:54;91758.53;;;27.46;46.50
46778;BME280;32536;47.128;8.746;2022-08-30T14:22:21;91751.31;;;27.43;46.62
46778;BME280;32536;47.128;8.746;2022-08-30T14:24:48;91752.03;;;27.49;46.51
46778;BME280;32536;47.128;8.746;2022-08-30T14:27:16;91750.97;;;27.58;46.63
46778;BME280;32536;47.128;8.746;2022-08-30T14:29:43;91753.38;;;27.67;46.56
46778;BME280;32536;47.128;8.746;2022-08-30T14:32:10;91752.34;;;27.76;46.60
46778;BME280;32536;47.128;8.746;2022-08-30T14:34:37;91752.75;;;27.86;46.49
46778;BME280;32536;47.128;8.746;2022-08-30T14:37:03;91757.19;;;27.94;46.55
46778;BME280;32536;47.128;8.746;2022-08-30T14:39:31;91753.34;;;28.03;45.98
46778;BME280;32536;47.128;8.746;2022-08-30T14:42:08;91747.84;;;28.09;44.43
46778;BME280;32536;47.128;8.746;2022-08-30T14:44:36;91755.75;;;28.18;45.84
46778;BME280;32536;47.128;8.746;2022-08-30T14:47:04;91755.47;;;28.22;45.95
46778;BME280;32536;47.128;8.746;2022-08-30T14:49:31;91751.72;;;28.19;45.95
46778;BME280;32536;47.128;8.746;2022-08-30T14:51:58;91752.69;;;28.22;45.92
46778;BME280;32536;47.128;8.746;2022-08-30T14:54:28;91749.75;;;28.20;45.11
46778;BME280;32536;47.128;8.746;2022-08-30T14:56:56;91744.22;;;28.20;45.74
46778;BME280;32536;47.128;8.746;2022-08-30T14:59:24;91740.03;;;28.13;45.66
46778;BME280;32536;47.128;8.746;2022-08-30T15:01:51;91738.31;;;28.10;45.63
46778;BME280;32536;47.128;8.746;2022-08-30T15:04:18;91742.53;;;28.11;45.76
46778;BME280;32536;47.128;8.746;2022-08-30T15:06:46;91735.78;;;28.12;45.62
46778;BME280;32536;47.128;8.746;2022-08-30T15:09:17;91730.06;;;28.10;45.20
46778;BME280;32536;47.128;8.746;2022-08-30T15:11:47;91730.56;;;28.08;45.47
46778;BME280;32536;47.128;8.746;2022-08-30T15:14:14;91724.53;;;28.10;45.56